sensor_id;sensor_type;location;lat;lon;timestamp;pressure;altitude;pressure_sealevel;temperature;humidity
30343;BME280;17145;49.902;8.680;'2023-03-03 00:58:21';100410;;;5;34
30343;BME280;17145;49.902;8.680;'2023-03-03 01:00:49';100420;;;5;34
30343;BME280;17145;49.902;8.680;'2023-03-03 01:03:20';100420;;;5;34
30343;BME280;17145;49.902;8.680;'2023-03-03 01:05:48';100420;;;5;34
30343;BME280;17145;49.902;8.680;'2023-03-03 01:08:16';100420;;;4;34
30343;BME280;17145;49.902;8.680;'2023-03-03 01:10:44';100420;;;4;34
30343;BME280;17145;49.902;8.680;'2023-03-03 01:13:16';100420;;;4;34
30343;BME280;17145;49.902;8.680;'2023-03-03 01:15:44';100420;;;4;34
30343;BME280;17145;49.902;8.680;'2023-03-03 01:18:20';100430;;;4;35
30343;BME280;17145;49.902;8.680;'2023-03-03 01:20:51';100430;;;4;35
30343;BME280;17145;49.902;8.680;'2023-03-03 01:23:25';100440;;;4;35
30343;BME280;17145;49.902;8.680;'2023-03-03 01:25:54';100440;;;4;35
30343;BME280;17145;49.902;8.680;'2023-03-03 01:28:25';100440;;;4;35
30343;BME280;17145;49.902;8.680;'2023-03-03 01:30:55';100440;;;4;36
30343;BME280;17145;49.902;8.680;'2023-03-03 01:33:27';100440;;;4;36
30343;BME280;17145;49.902;8.680;'2023-03-03 01:35:56';100450;;;4;36
30343;BME280;17145;49.902;8.680;'2023-03-03 01:38:23';100450;;;4;36
30343;BME280;17145;49.902;8.680;'2023-03-03 01:40:50';100450;;;4;37
30343;BME280;17145;49.902;8.680;'2023-03-03 01:43:19';100450;;;4;36
30343;BME280;17145;49.902;8.680;'2023-03-03 01:45:49';100450;;;4;36
30343;BME280;17145;49.902;8.680;'2023-03-03 01:48:22';100450;;;4;36
30343;BME280;17145;49.902;8.680;'2023-03-03 01:50:51';100460;;;4;37
30343;BME280;17145;49.902;8.680;'2023-03-03 01:53:20';100460;;;4;37
30343;BME280;17145;49.902;8.680;'2023-03-03 01:55:50';100460;;;4;37
30343;BME280;17145;49.902;8.680;'2023-03-03 01:58:18';100470;;;4;37
30343;BME280;17145;49.902;8.680;'2023-03-03 02:00:45';100460;;;4;37
30343;BME280;17145;49.902;8.680;'2023-03-03 02:03:14';100460;;;4;37
30343;BME280;17145;49.902;8.680;'2023-03-03 02:05:42';100460;;;4;37
30343;BME280;17145;49.902;8.680;'2023-03-03 02:08:10';100470;;;4;37
30343;BME280;17145;49.902;8.680;'2023-03-03 02:10:43';100470;;;4;37
30343;BME280;17145;49.902;8.680;'2023-03-03 02:13:11';100460;;;4;38
30343;BME280;17145;49.902;8.680;'2023-03-03 02:15:39';100460;;;4;37
30343;BME280;17145;49.902;8.680;'2023-03-03 02:18:09';100460;;;4;37
30343;BME280;17145;49.902;8.680;'2023-03-03 02:20:37';100460;;;3;38
30343;BME280;17145;49.902;8.680;'2023-03-03 02:23:05';100460;;;3;37
30343;BME280;17145;49.902;8.680;'2023-03-03 02:25:32';100460;;;3;38
30343;BME280;17145;49.902;8.680;'2023-03-03 02:28:00';100460;;;3;38
30343;BME280;17145;49.902;8.680;'2023-03-03 02:30:27';100460;;;3;38
30343;BME280;17145;49.902;8.680;'2023-03-03 02:32:54';100460;;;3;38
30343;BME280;17145;49.902;8.680;'2023-03-03 02:35:22';100460;;;3;38
30343;BME280;17145;49.902;8.680;'2023-03-03 02:37:50';100450;;;3;39
30343;BME280;17145;49.902;8.680;'2023-03-03 02:40:19';100460;;;3;39
30343;BME280;17145;49.902;8.680;'2023-03-03 02:42:47';100460;;;3;39
30343;BME280;17145;49.902;8.680;'2023-03-03 02:45:18';100460;;;3;39
30343;BME280;17145;49.902;8.680;'2023-03-03 02:47:51';100460;;;3;39
30343;BME280;17145;49.902;8.680;'2023-03-03 02:50:29';100460;;;3;39
30343;BME280;17145;49.902;8.680;'2023-03-03 02:52:58';100460;;;3;39
30343;BME280;17145;49.902;8.680;'2023-03-03 02:55:33';100460;;;3;39
30343;BME280;17145;49.902;8.680;'2023-03-03 02:58:04';100460;;;3;39
30343;BME280;17145;49.902;8.680;'2023-03-03 03:00:33';100460;;;3;39
30343;BME280;17145;49.902;8.680;'2023-03-03 03:03:00';100450;;;3;39
30343;BME280;17145;49.902;8.680;'2023-03-03 03:05:28';100450;;;2;39
30343;BME280;17145;49.902;8.680;'2023-03-03 03:07:56';100450;;;2;39
30343;BME280;17145;49.902;8.680;'2023-03-03 03:10:23';100460;;;2;39
30343;BME280;17145;49.902;8.680;'2023-03-03 03:12:53';100460;;;3;39
30343;BME280;17145;49.902;8.680;'2023-03-03 03:15:24';100450;;;2;39
30343;BME280;17145;49.902;8.680;'2023-03-03 03:17:55';100450;;;2;39
30343;BME280;17145;49.902;8.680;'2023-03-03 03:20:36';100450;;;2;39
30343;BME280;17145;49.902;8.680;'2023-03-03 03:23:11';100450;;;2;39
30343;BME280;17145;49.902;8.680;'2023-03-03 03:25:46';100450;;;2;40
30343;BME280;17145;49.902;8.680;'2023-03-03 03:28:14';100460;;;2;40
30343;BME280;17145;49.902;8.680;'2023-03-03 03:30:41';100460;;;2;40
30343;BME280;17145;49.902;8.680;'2023-03-03 03:33:09';100450;;;2;40
30343;BME280;17145;49.902;8.680;'2023-03-03 03:35:38';100460;;;2;40
30343;BME280;17145;49.902;8.680;'2023-03-03 03:38:16';100450;;;2;40
30343;BME280;17145;49.902;8.680;'2023-03-03 03:40:55';100440;;;2;40
30343;BME280;17145;49.902;8.680;'2023-03-03 03:43:26';100450;;;2;40
30343;BME280;17145;49.902;8.680;'2023-03-03 03:45:53';100450;;;2;40
30343;BME280;17145;49.902;8.680;'2023-03-03 03:48:20';100450;;;2;40
30343;BME280;17145;49.902;8.680;'2023-03-03 03:50:48';100450;;;2;40
30343;BME280;17145;49.902;8.680;'2023-03-03 03:53:15';100460;;;2;40
30343;BME280;17145;49.902;8.680;'2023-03-03 03:55:42';100460;;;2;41
30343;BME280;17145;49.902;8.680;'2023-03-03 03:58:10';100460;;;2;40
30343;BME280;17145;49.902;8.680;'2023-03-03 04:00:37';100460;;;2;40
30343;BME280;17145;49.902;8.680;'2023-03-03 04:03:05';100460;;;2;41
30343;BME280;17145;49.902;8.680;'2023-03-03 04:05:32';100460;;;2;41
30343;BME280;17145;49.902;8.680;'2023-03-03 04:07:59';100460;;;2;41
30343;BME280;17145;49.902;8.680;'2023-03-03 04:10:27';100460;;;1;41
30343;BME280;17145;49.902;8.680;'2023-03-03 04:12:54';100460;;;2;41
30343;BME280;17145;49.902;8.680;'2023-03-03 04:15:22';100460;;;2;41
30343;BME280;17145;49.902;8.680;'2023-03-03 04:17:49';100460;;;2;41
30343;BME280;17145;49.902;8.680;'2023-03-03 04:20:17';100460;;;1;41
30343;BME280;17145;49.902;8.680;'2023-03-03 04:22:44';100460;;;1;41
30343;BME280;17145;49.902;8.680;'2023-03-03 04:25:12';100460;;;2;41
30343;BME280;17145;49.902;8.680;'2023-03-03 04:27:39';100460;;;2;41
30343;BME280;17145;49.902;8.680;'2023-03-03 04:30:08';100460;;;1;41
30343;BME280;17145;49.902;8.680;'2023-03-03 04:32:36';100460;;;2;41
30343;BME280;17145;49.902;8.680;'2023-03-03 04:35:04';100460;;;2;41
30343;BME280;17145;49.902;8.680;'2023-03-03 04:37:31';100460;;;2;42
30343;BME280;17145;49.902;8.680;'2023-03-03 04:39:58';100460;;;2;42
30343;BME280;17145;49.902;8.680;'2023-03-03 04:42:26';100460;;;1;42
30343;BME280;17145;49.902;8.680;'2023-03-03 04:44:53';100470;;;1;42
30343;BME280;17145;49.902;8.680;'2023-03-03 04:47:21';100470;;;1;42
30343;BME280;17145;49.902;8.680;'2023-03-03 04:49:48';100470;;;1;42
30343;BME280;17145;49.902;8.680;'2023-03-03 04:52:15';100470;;;2;42
30343;BME280;17145;49.902;8.680;'2023-03-03 04:54:43';100470;;;2;42
30343;BME280;17145;49.902;8.680;'2023-03-03 04:57:10';100470;;;1;42
30343;BME280;17145;49.902;8.680;'2023-03-03 04:59:38';100460;;;1;42
30343;BME280;17145;49.902;8.680;'2023-03-03 05:02:05';100460;;;1;42
30343;BME280;17145;49.902;8.680;'2023-03-03 05:04:33';100460;;;1;42
30343;BME280;17145;49.902;8.680;'2023-03-03 05:07:00';100470;;;1;42
30343;BME280;17145;49.902;8.680;'2023-03-03 05:09:28';100470;;;1;42
30343;BME280;17145;49.902;8.680;'2023-03-03 05:11:55';100480;;;1;43
30343;BME280;17145;49.902;8.680;'2023-03-03 05:14:23';100480;;;1;43
30343;BME280;17145;49.902;8.680;'2023-03-03 05:16:50';100480;;;1;43
30343;BME280;17145;49.902;8.680;'2023-03-03 05:19:17';100480;;;1;43
30343;BME280;17145;49.902;8.680;'2023-03-03 05:21:45';100480;;;1;43
30343;BME280;17145;49.902;8.680;'2023-03-03 05:24:12';100480;;;1;43
30343;BME280;17145;49.902;8.680;'2023-03-03 05:26:40';100480;;;1;42
30343;BME280;17145;49.902;8.680;'2023-03-03 05:29:07';100490;;;1;42
30343;BME280;17145;49.902;8.680;'2023-03-03 05:31:35';100490;;;1;42
30343;BME280;17145;49.902;8.680;'2023-03-03 05:34:02';100490;;;1;42
30343;BME280;17145;49.902;8.680;'2023-03-03 05:36:30';100490;;;1;43
30343;BME280;17145;49.902;8.680;'2023-03-03 05:38:58';100500;;;1;42
30343;BME280;17145;49.902;8.680;'2023-03-03 05:41:25';100500;;;1;43
30343;BME280;17145;49.902;8.680;'2023-03-03 05:43:52';100500;;;1;43
30343;BME280;17145;49.902;8.680;'2023-03-03 05:46:20';100500;;;1;44
30343;BME280;17145;49.902;8.680;'2023-03-03 05:48:47';100500;;;1;44
30343;BME280;17145;49.902;8.680;'2023-03-03 05:51:15';100500;;;1;44
30343;BME280;17145;49.902;8.680;'2023-03-03 05:53:42';100500;;;1;44
30343;BME280;17145;49.902;8.680;'2023-03-03 05:56:10';100510;;;1;44
30343;BME280;17145;49.902;8.680;'2023-03-03 05:58:37';100510;;;1;44
30343;BME280;17145;49.902;8.680;'2023-03-03 06:01:05';100510;;;1;44
30343;BME280;17145;49.902;8.680;'2023-03-03 06:03:32';100500;;;1;45
30343;BME280;17145;49.902;8.680;'2023-03-03 06:06:00';100500;;;1;44
30343;BME280;17145;49.902;8.680;'2023-03-03 06:08:27';100510;;;1;44
30343;BME280;17145;49.902;8.680;'2023-03-03 06:10:54';100510;;;1;44
30343;BME280;17145;49.902;8.680;'2023-03-03 06:13:22';100510;;;1;44
30343;BME280;17145;49.902;8.680;'2023-03-03 06:15:50';100510;;;1;44
30343;BME280;17145;49.902;8.680;'2023-03-03 06:18:18';100500;;;1;44
30343;BME280;17145;49.902;8.680;'2023-03-03 06:20:46';100500;;;1;44
30343;BME280;17145;49.902;8.680;'2023-03-03 06:23:13';100500;;;1;45
30343;BME280;17145;49.902;8.680;'2023-03-03 06:25:41';100500;;;1;44
30343;BME280;17145;49.902;8.680;'2023-03-03 06:28:09';100500;;;1;45
30343;BME280;17145;49.902;8.680;'2023-03-03 06:30:37';100500;;;1;45
30343;BME280;17145;49.902;8.680;'2023-03-03 06:33:05';100510;;;1;45
30343;BME280;17145;49.902;8.680;'2023-03-03 06:35:33';100510;;;1;46
30343;BME280;17145;49.902;8.680;'2023-03-03 06:38:01';100510;;;1;45
30343;BME280;17145;49.902;8.680;'2023-03-03 06:40:28';100510;;;1;45
30343;BME280;17145;49.902;8.680;'2023-03-03 06:42:56';100520;;;1;45
30343;BME280;17145;49.902;8.680;'2023-03-03 06:45:24';100520;;;1;45
30343;BME280;17145;49.902;8.680;'2023-03-03 06:47:52';100520;;;1;46
30343;BME280;17145;49.902;8.680;'2023-03-03 06:50:21';100520;;;1;46
30343;BME280;17145;49.902;8.680;'2023-03-03 06:52:50';100520;;;1;46
30343;BME280;17145;49.902;8.680;'2023-03-03 06:55:18';100520;;;1;45
30343;BME280;17145;49.902;8.680;'2023-03-03 06:57:45';100530;;;1;46
30343;BME280;17145;49.902;8.680;'2023-03-03 07:00:15';100530;;;1;47
30343;BME280;17145;49.902;8.680;'2023-03-03 07:02:43';100530;;;1;47
30343;BME280;17145;49.902;8.680;'2023-03-03 07:05:11';100530;;;1;47
30343;BME280;17145;49.902;8.680;'2023-03-03 07:07:38';100530;;;1;47
30343;BME280;17145;49.902;8.680;'2023-03-03 07:10:07';100540;;;1;48
30343;BME280;17145;49.902;8.680;'2023-03-03 07:12:35';100540;;;1;48
30343;BME280;17145;49.902;8.680;'2023-03-03 07:15:03';100540;;;1;48
30343;BME280;17145;49.902;8.680;'2023-03-03 07:17:30';100550;;;1;48
30343;BME280;17145;49.902;8.680;'2023-03-03 07:19:57';100560;;;1;48
30343;BME280;17145;49.902;8.680;'2023-03-03 07:22:25';100560;;;1;48
30343;BME280;17145;49.902;8.680;'2023-03-03 07:24:52';100560;;;1;47
30343;BME280;17145;49.902;8.680;'2023-03-03 07:27:20';100560;;;1;48
30343;BME280;17145;49.902;8.680;'2023-03-03 07:29:47';100560;;;1;48
30343;BME280;17145;49.902;8.680;'2023-03-03 07:32:15';100570;;;1;48
30343;BME280;17145;49.902;8.680;'2023-03-03 07:34:42';100570;;;1;48
30343;BME280;17145;49.902;8.680;'2023-03-03 07:37:09';100580;;;1;48
30343;BME280;17145;49.902;8.680;'2023-03-03 07:39:37';100590;;;1;48
30343;BME280;17145;49.902;8.680;'2023-03-03 07:42:05';100590;;;1;48
30343;BME280;17145;49.902;8.680;'2023-03-03 07:44:33';100580;;;1;48
30343;BME280;17145;49.902;8.680;'2023-03-03 07:47:00';100590;;;1;48
30343;BME280;17145;49.902;8.680;'2023-03-03 07:49:28';100590;;;1;48
30343;BME280;17145;49.902;8.680;'2023-03-03 07:51:58';100590;;;1;48
30343;BME280;17145;49.902;8.680;'2023-03-03 07:54:27';100590;;;1;48
30343;BME280;17145;49.902;8.680;'2023-03-03 07:57:00';100600;;;1;48
30343;BME280;17145;49.902;8.680;'2023-03-03 07:59:27';100590;;;1;47
30343;BME280;17145;49.902;8.680;'2023-03-03 08:01:55';100600;;;2;48
30343;BME280;17145;49.902;8.680;'2023-03-03 08:04:27';100610;;;2;48
30343;BME280;17145;49.902;8.680;'2023-03-03 08:06:54';100610;;;2;48
30343;BME280;17145;49.902;8.680;'2023-03-03 08:09:24';100620;;;2;48
30343;BME280;17145;49.902;8.680;'2023-03-03 08:11:55';100610;;;2;48
30343;BME280;17145;49.902;8.680;'2023-03-03 08:14:22';100620;;;1;49
30343;BME280;17145;49.902;8.680;'2023-03-03 08:16:55';100620;;;1;49
30343;BME280;17145;49.902;8.680;'2023-03-03 08:19:29';100630;;;2;49
30343;BME280;17145;49.902;8.680;'2023-03-03 08:21:57';100640;;;2;49
30343;BME280;17145;49.902;8.680;'2023-03-03 08:24:26';100630;;;1;49
30343;BME280;17145;49.902;8.680;'2023-03-03 08:26:59';100640;;;1;49
30343;BME280;17145;49.902;8.680;'2023-03-03 08:29:28';100640;;;2;49
30343;BME280;17145;49.902;8.680;'2023-03-03 08:31:57';100640;;;1;49
30343;BME280;17145;49.902;8.680;'2023-03-03 08:34:34';100640;;;1;49
30343;BME280;17145;49.902;8.680;'2023-03-03 08:37:10';100650;;;2;49
30343;BME280;17145;49.902;8.680;'2023-03-03 08:39:39';100650;;;2;49
30343;BME280;17145;49.902;8.680;'2023-03-03 08:42:16';100650;;;2;49
30343;BME280;17145;49.902;8.680;'2023-03-03 08:44:44';100660;;;2;49
30343;BME280;17145;49.902;8.680;'2023-03-03 08:47:18';100660;;;2;49
30343;BME280;17145;49.902;8.680;'2023-03-03 08:49:46';100670;;;2;49
30343;BME280;17145;49.902;8.680;'2023-03-03 08:52:23';100670;;;2;49
30343;BME280;17145;49.902;8.680;'2023-03-03 08:54:53';100670;;;2;49
30343;BME280;17145;49.902;8.680;'2023-03-03 08:57:25';100670;;;2;49
30343;BME280;17145;49.902;8.680;'2023-03-03 08:59:58';100680;;;2;49
30343;BME280;17145;49.902;8.680;'2023-03-03 09:05:22';100680;;;2;49
30343;BME280;17145;49.902;8.680;'2023-03-03 09:07:50';100680;;;2;48
30343;BME280;17145;49.902;8.680;'2023-03-03 09:10:30';100690;;;2;48
30343;BME280;17145;49.902;8.680;'2023-03-03 09:13:05';100690;;;2;49
30343;BME280;17145;49.902;8.680;'2023-03-03 09:15:36';100700;;;2;48
30343;BME280;17145;49.902;8.680;'2023-03-03 09:18:18';100700;;;2;48
30343;BME280;17145;49.902;8.680;'2023-03-03 09:20:47';100690;;;3;49
30343;BME280;17145;49.902;8.680;'2023-03-03 09:23:16';100690;;;3;48
30343;BME280;17145;49.902;8.680;'2023-03-03 09:25:45';100690;;;3;48
30343;BME280;17145;49.902;8.680;'2023-03-03 09:28:12';100690;;;2;48
30343;BME280;17145;49.902;8.680;'2023-03-03 09:30:41';100690;;;3;48
30343;BME280;17145;49.902;8.680;'2023-03-03 09:33:09';100690;;;3;47
30343;BME280;17145;49.902;8.680;'2023-03-03 09:35:37';100700;;;3;47
30343;BME280;17145;49.902;8.680;'2023-03-03 09:38:06';100690;;;3;47
30343;BME280;17145;49.902;8.680;'2023-03-03 09:40:34';100690;;;3;47
30343;BME280;17145;49.902;8.680;'2023-03-03 09:43:02';100690;;;3;47
30343;BME280;17145;49.902;8.680;'2023-03-03 09:45:30';100690;;;3;47
30343;BME280;17145;49.902;8.680;'2023-03-03 09:47:57';100690;;;3;47
30343;BME280;17145;49.902;8.680;'2023-03-03 09:50:26';100690;;;3;47
30343;BME280;17145;49.902;8.680;'2023-03-03 09:52:54';100690;;;3;47
30343;BME280;17145;49.902;8.680;'2023-03-03 09:55:21';100690;;;3;47
30343;BME280;17145;49.902;8.680;'2023-03-03 09:57:49';100700;;;3;47
30343;BME280;17145;49.902;8.680;'2023-03-03 10:00:16';100700;;;3;47
30343;BME280;17145;49.902;8.680;'2023-03-03 10:02:44';100690;;;3;46
30343;BME280;17145;49.902;8.680;'2023-03-03 10:05:12';100700;;;3;46
30343;BME280;17145;49.902;8.680;'2023-03-03 10:07:40';100700;;;4;46
30343;BME280;17145;49.902;8.680;'2023-03-03 10:10:09';100700;;;3;46
30343;BME280;17145;49.902;8.680;'2023-03-03 10:12:39';100700;;;3;46
30343;BME280;17145;49.902;8.680;'2023-03-03 10:15:17';100700;;;3;46
30343;BME280;17145;49.902;8.680;'2023-03-03 10:17:45';100710;;;3;46
30343;BME280;17145;49.902;8.680;'2023-03-03 10:20:27';100710;;;4;46
30343;BME280;17145;49.902;8.680;'2023-03-03 10:22:54';100710;;;4;45
30343;BME280;17145;49.902;8.680;'2023-03-03 10:25:30';100700;;;4;45
30343;BME280;17145;49.902;8.680;'2023-03-03 10:27:58';100700;;;4;45
30343;BME280;17145;49.902;8.680;'2023-03-03 10:30:36';100700;;;4;45
30343;BME280;17145;49.902;8.680;'2023-03-03 10:33:19';100700;;;4;45
30343;BME280;17145;49.902;8.680;'2023-03-03 10:35:50';100710;;;4;44
30343;BME280;17145;49.902;8.680;'2023-03-03 10:38:27';100710;;;5;44
30343;BME280;17145;49.902;8.680;'2023-03-03 10:41:09';100700;;;5;43
30343;BME280;17145;49.902;8.680;'2023-03-03 10:43:47';100700;;;4;44
30343;BME280;17145;49.902;8.680;'2023-03-03 10:46:24';100700;;;4;44
30343;BME280;17145;49.902;8.680;'2023-03-03 10:49:06';100700;;;5;43
30343;BME280;17145;49.902;8.680;'2023-03-03 10:51:45';100700;;;5;43
30343;BME280;17145;49.902;8.680;'2023-03-03 10:54:27';100700;;;5;43
30343;BME280;17145;49.902;8.680;'2023-03-03 10:57:04';100710;;;5;43
30343;BME280;17145;49.902;8.680;'2023-03-03 10:59:43';100700;;;5;42
30343;BME280;17145;49.902;8.680;'2023-03-03 11:02:27';100700;;;5;43
30343;BME280;17145;49.902;8.680;'2023-03-03 11:05:09';100700;;;5;42
30343;BME280;17145;49.902;8.680;'2023-03-03 11:07:48';100700;;;5;42
30343;BME280;17145;49.902;8.680;'2023-03-03 11:10:30';100710;;;5;43
30343;BME280;17145;49.902;8.680;'2023-03-03 11:13:11';100710;;;6;42
30343;BME280;17145;49.902;8.680;'2023-03-03 11:15:50';100710;;;5;41
30343;BME280;17145;49.902;8.680;'2023-03-03 11:18:28';100720;;;5;41
30343;BME280;17145;49.902;8.680;'2023-03-03 11:21:03';100720;;;5;42
30343;BME280;17145;49.902;8.680;'2023-03-03 11:23:44';100710;;;5;42
30343;BME280;17145;49.902;8.680;'2023-03-03 11:26:20';100710;;;6;42
30343;BME280;17145;49.902;8.680;'2023-03-03 11:29:01';100710;;;5;41
30343;BME280;17145;49.902;8.680;'2023-03-03 11:31:44';100710;;;6;41
30343;BME280;17145;49.902;8.680;'2023-03-03 11:34:24';100710;;;6;41
30343;BME280;17145;49.902;8.680;'2023-03-03 11:36:59';100710;;;6;40
30343;BME280;17145;49.902;8.680;'2023-03-03 11:39:41';100710;;;6;40
30343;BME280;17145;49.902;8.680;'2023-03-03 11:42:25';100710;;;6;39
30343;BME280;17145;49.902;8.680;'2023-03-03 11:45:09';100710;;;7;39
30343;BME280;17145;49.902;8.680;'2023-03-03 11:47:52';100700;;;7;39
30343;BME280;17145;49.902;8.680;'2023-03-03 11:50:26';100710;;;7;38
30343;BME280;17145;49.902;8.680;'2023-03-03 11:53:05';100710;;;7;39
30343;BME280;17145;49.902;8.680;'2023-03-03 11:55:40';100720;;;7;38
30343;BME280;17145;49.902;8.680;'2023-03-03 11:58:30';100720;;;7;37
30343;BME280;17145;49.902;8.680;'2023-03-03 12:01:06';100720;;;7;38
30343;BME280;17145;49.902;8.680;'2023-03-03 12:03:59';100720;;;7;37
30343;BME280;17145;49.902;8.680;'2023-03-03 12:06:37';100720;;;7;38
30343;BME280;17145;49.902;8.680;'2023-03-03 12:09:13';100720;;;8;37
30343;BME280;17145;49.902;8.680;'2023-03-03 12:11:49';100710;;;8;37
30343;BME280;17145;49.902;8.680;'2023-03-03 12:14:25';100710;;;7;38
30343;BME280;17145;49.902;8.680;'2023-03-03 12:17:03';100720;;;7;38
30343;BME280;17145;49.902;8.680;'2023-03-03 12:19:44';100720;;;7;38
30343;BME280;17145;49.902;8.680;'2023-03-03 12:22:25';100710;;;8;38
30343;BME280;17145;49.902;8.680;'2023-03-03 12:25:02';100710;;;7;37
30343;BME280;17145;49.902;8.680;'2023-03-03 12:27:43';100710;;;8;38
30343;BME280;17145;49.902;8.680;'2023-03-03 12:30:26';100700;;;8;37
30343;BME280;17145;49.902;8.680;'2023-03-03 12:33:02';100700;;;8;36
30343;BME280;17145;49.902;8.680;'2023-03-03 12:35:37';100700;;;8;37
30343;BME280;17145;49.902;8.680;'2023-03-03 12:38:23';100700;;;8;37
30343;BME280;17145;49.902;8.680;'2023-03-03 12:40:55';100700;;;7;38
30343;BME280;17145;49.902;8.680;'2023-03-03 12:43:28';100690;;;7;37
30343;BME280;17145;49.902;8.680;'2023-03-03 12:46:03';100690;;;8;37
30343;BME280;17145;49.902;8.680;'2023-03-03 12:48:38';100680;;;8;37
30343;BME280;17145;49.902;8.680;'2023-03-03 12:51:11';100680;;;8;36
30343;BME280;17145;49.902;8.680;'2023-03-03 12:53:51';100680;;;8;37
30343;BME280;17145;49.902;8.680;'2023-03-03 12:56:23';100680;;;8;36
30343;BME280;17145;49.902;8.680;'2023-03-03 12:59:03';100670;;;8;36
30343;BME280;17145;49.902;8.680;'2023-03-03 13:01:35';100660;;;8;36
30343;BME280;17145;49.902;8.680;'2023-03-03 13:04:09';100660;;;8;35
30343;BME280;17145;49.902;8.680;'2023-03-03 13:06:52';100650;;;8;35
30343;BME280;17145;49.902;8.680;'2023-03-03 13:09:31';100650;;;8;35
30343;BME280;17145;49.902;8.680;'2023-03-03 13:12:05';100650;;;8;35
30343;BME280;17145;49.902;8.680;'2023-03-03 13:14:52';100640;;;9;34
30343;BME280;17145;49.902;8.680;'2023-03-03 13:17:43';100640;;;9;34
30343;BME280;17145;49.902;8.680;'2023-03-03 13:20:19';100640;;;9;34
30343;BME280;17145;49.902;8.680;'2023-03-03 13:22:59';100640;;;9;33
30343;BME280;17145;49.902;8.680;'2023-03-03 13:25:35';100640;;;9;34
30343;BME280;17145;49.902;8.680;'2023-03-03 13:30:55';100630;;;9;34
30343;BME280;17145;49.902;8.680;'2023-03-03 13:33:32';100620;;;10;33
30343;BME280;17145;49.902;8.680;'2023-03-03 13:36:09';100620;;;10;33
30343;BME280;17145;49.902;8.680;'2023-03-03 13:38:46';100620;;;10;32
30343;BME280;17145;49.902;8.680;'2023-03-03 13:41:21';100610;;;10;32
30343;BME280;17145;49.902;8.680;'2023-03-03 13:43:57';100610;;;10;32
30343;BME280;17145;49.902;8.680;'2023-03-03 13:46:33';100610;;;10;32
30343;BME280;17145;49.902;8.680;'2023-03-03 13:49:00';100610;;;11;31
30343;BME280;17145;49.902;8.680;'2023-03-03 13:51:39';100610;;;11;31
30343;BME280;17145;49.902;8.680;'2023-03-03 13:54:20';100600;;;10;31
30343;BME280;17145;49.902;8.680;'2023-03-03 13:56:54';100600;;;11;31
30343;BME280;17145;49.902;8.680;'2023-03-03 13:59:35';100600;;;11;31
30343;BME280;17145;49.902;8.680;'2023-03-03 14:02:19';100600;;;11;31
30343;BME280;17145;49.902;8.680;'2023-03-03 14:04:55';100600;;;11;31
30343;BME280;17145;49.902;8.680;'2023-03-03 14:07:30';100600;;;11;30
30343;BME280;17145;49.902;8.680;'2023-03-03 14:10:07';100600;;;11;30
30343;BME280;17145;49.902;8.680;'2023-03-03 14:12:44';100590;;;11;31
30343;BME280;17145;49.902;8.680;'2023-03-03 14:15:20';100590;;;11;31
30343;BME280;17145;49.902;8.680;'2023-03-03 14:17:58';100580;;;12;30
30343;BME280;17145;49.902;8.680;'2023-03-03 14:20:40';100580;;;12;29
30343;BME280;17145;49.902;8.680;'2023-03-03 14:23:12';100580;;;12;29
30343;BME280;17145;49.902;8.680;'2023-03-03 14:25:49';100580;;;11;29
30343;BME280;17145;49.902;8.680;'2023-03-03 14:28:27';100580;;;11;29
30343;BME280;17145;49.902;8.680;'2023-03-03 14:31:02';100580;;;12;29
30343;BME280;17145;49.902;8.680;'2023-03-03 14:33:34';100580;;;12;28
30343;BME280;17145;49.902;8.680;'2023-03-03 14:36:06';100580;;;12;28
30343;BME280;17145;49.902;8.680;'2023-03-03 14:38:39';100570;;;12;28
30343;BME280;17145;49.902;8.680;'2023-03-03 14:41:16';100570;;;13;27
30343;BME280;17145;49.902;8.680;'2023-03-03 14:43:48';100570;;;13;28
30343;BME280;17145;49.902;8.680;'2023-03-03 14:46:24';100560;;;13;28
30343;BME280;17145;49.902;8.680;'2023-03-03 14:49:09';100560;;;13;28
30343;BME280;17145;49.902;8.680;'2023-03-03 14:51:45';100560;;;13;27
30343;BME280;17145;49.902;8.680;'2023-03-03 14:54:30';100560;;;13;27
30343;BME280;17145;49.902;8.680;'2023-03-03 14:57:11';100560;;;14;26
30343;BME280;17145;49.902;8.680;'2023-03-03 15:02:31';100550;;;15;24
30343;BME280;17145;49.902;8.680;'2023-03-03 15:05:01';100540;;;16;24
30343;BME280;17145;49.902;8.680;'2023-03-03 15:07:37';100530;;;17;23
30343;BME280;17145;49.902;8.680;'2023-03-03 15:10:12';100540;;;18;21
30343;BME280;17145;49.902;8.680;'2023-03-03 15:12:47';100540;;;19;21
30343;BME280;17145;49.902;8.680;'2023-03-03 15:15:23';100530;;;19;20
30343;BME280;17145;49.902;8.680;'2023-03-03 15:18:04';100530;;;19;20
30343;BME280;17145;49.902;8.680;'2023-03-03 15:20:38';100530;;;19;20
30343;BME280;17145;49.902;8.680;'2023-03-03 15:23:12';100520;;;20;20
30343;BME280;17145;49.902;8.680;'2023-03-03 15:25:51';100530;;;20;19
30343;BME280;17145;49.902;8.680;'2023-03-03 15:28:21';100520;;;21;18
30343;BME280;17145;49.902;8.680;'2023-03-03 15:30:48';100520;;;21;18
30343;BME280;17145;49.902;8.680;'2023-03-03 15:35:55';100520;;;21;17
30343;BME280;17145;49.902;8.680;'2023-03-03 15:38:29';100520;;;20;18
30343;BME280;17145;49.902;8.680;'2023-03-03 15:41:05';100520;;;20;18
30343;BME280;17145;49.902;8.680;'2023-03-03 15:46:14';100530;;;19;19
30343;BME280;17145;49.902;8.680;'2023-03-03 15:48:49';100530;;;18;19
30343;BME280;17145;49.902;8.680;'2023-03-03 15:51:25';100530;;;18;20
30343;BME280;17145;49.902;8.680;'2023-03-03 15:53:54';100530;;;17;20
30343;BME280;17145;49.902;8.680;'2023-03-03 15:56:23';100530;;;18;20